Pagrindinis puslapis
METAR-TAF:

METAR-TAF

Oro uostai :

Montes Claros, Minas Žeraisas, Brazilija

platuma: 16-43S, ilguma: 043-52W, Aukštis: 646 m

Dabartinis oras

Ataskaita buvo paskelbta 11 valandos ir 40 minutes, ne 20:00 UTC
Vėjas 5 kt iš Vakarų/Pietvakarių
Temperatūra 29°C
Drėgmė 40%
Slėgis 1009 hPa
Matomumas 10 km arba daugiau
Mažai debesys ne aukštis 4000 ft
Mažai debesys ne aukštis 4500 ft, Liūtiniai kamuoliniai debesys.
perkūnija, Liūtis kaimynystėje

METAR: SBMK 282000Z 24005KT 9999 TS VCSH FEW040 FEW045CB 29/14 Q1009

Laikas: 04:40 (07:40 UTC)


TAF: trūkstamas

Orai ataskaitas ir orų prognozės (METAR, TAF).

turimą stotys yra geltonos ir raudonos taškus žemėlapyje.

Perkelti pele per norėdami pamatyti stoties vardą.

Tada spustelėkite, norėdami matyti oro stebėjimo ir prognozės.

Norėdami pakeisti žemėlapį: spustelėkite ant žalios mygtukų su juodo kryžiaus žemyn,; žalią mygtuką su brūkšneliu, jei norite nutolinti; arba žalių rodyklių gretimoms žemėlapius.


METAR-TAF: